sensor_id;sensor_type;location;lat;lon;timestamp;temperature;humidity
2757;DHT22;1386;50.862;6.494;2023-07-13T00:09:49;18.20;92.90
2757;DHT22;1386;50.862;6.494;2023-07-13T00:12:28;18.20;93.40
2757;DHT22;1386;50.862;6.494;2023-07-13T00:14:58;18.20;93.60
2757;DHT22;1386;50.862;6.494;2023-07-13T00:17:31;18.10;93.70
2757;DHT22;1386;50.862;6.494;2023-07-13T00:20:01;18.00;93.90
2757;DHT22;1386;50.862;6.494;2023-07-13T00:22:29;18.00;94.00
2757;DHT22;1386;50.862;6.494;2023-07-13T00:25:07;18.00;94.20
2757;DHT22;1386;50.862;6.494;2023-07-13T00:27:47;18.00;94.60
2757;DHT22;1386;50.862;6.494;2023-07-13T00:30:18;17.90;94.60
2757;DHT22;1386;50.862;6.494;2023-07-13T00:32:51;18.00;94.70
2757;DHT22;1386;50.862;6.494;2023-07-13T00:35:20;18.00;94.80
2757;DHT22;1386;50.862;6.494;2023-07-13T00:37:54;17.90;95.00
2757;DHT22;1386;50.862;6.494;2023-07-13T00:40:23;17.70;95.40
2757;DHT22;1386;50.862;6.494;2023-07-13T00:42:52;17.70;95.70
2757;DHT22;1386;50.862;6.494;2023-07-13T00:48:32;17.70;96.00
2757;DHT22;1386;50.862;6.494;2023-07-13T00:51:03;17.70;96.10
2757;DHT22;1386;50.862;6.494;2023-07-13T00:53:33;17.70;96.30
2757;DHT22;1386;50.862;6.494;2023-07-13T00:56:03;17.70;96.30
2757;DHT22;1386;50.862;6.494;2023-07-13T00:58:33;17.60;96.70
2757;DHT22;1386;50.862;6.494;2023-07-13T01:01:07;17.60;96.60
2757;DHT22;1386;50.862;6.494;2023-07-13T01:03:53;17.60;96.90
2757;DHT22;1386;50.862;6.494;2023-07-13T01:06:41;17.60;97.10
2757;DHT22;1386;50.862;6.494;2023-07-13T01:09:13;17.60;97.10
2757;DHT22;1386;50.862;6.494;2023-07-13T01:11:42;17.60;97.30
2757;DHT22;1386;50.862;6.494;2023-07-13T01:14:11;17.60;97.40
2757;DHT22;1386;50.862;6.494;2023-07-13T01:16:39;17.60;97.50
2757;DHT22;1386;50.862;6.494;2023-07-13T01:19:13;17.60;97.60
2757;DHT22;1386;50.862;6.494;2023-07-13T01:21:44;17.50;97.80
2757;DHT22;1386;50.862;6.494;2023-07-13T01:24:16;17.50;97.90
2757;DHT22;1386;50.862;6.494;2023-07-13T01:26:43;17.50;98.10
2757;DHT22;1386;50.862;6.494;2023-07-13T01:29:09;17.50;98.20
2757;DHT22;1386;50.862;6.494;2023-07-13T01:31:36;17.40;98.40
2757;DHT22;1386;50.862;6.494;2023-07-13T01:34:03;17.40;98.60
2757;DHT22;1386;50.862;6.494;2023-07-13T01:36:30;17.40;98.80
2757;DHT22;1386;50.862;6.494;2023-07-13T01:38:58;17.30;98.90
2757;DHT22;1386;50.862;6.494;2023-07-13T01:41:25;17.20;99.20
2757;DHT22;1386;50.862;6.494;2023-07-13T01:43:52;17.20;99.50
2757;DHT22;1386;50.862;6.494;2023-07-13T01:46:19;17.20;99.80
2757;DHT22;1386;50.862;6.494;2023-07-13T01:48:46;17.20;99.90
2757;DHT22;1386;50.862;6.494;2023-07-13T01:51:12;17.20;99.90
2757;DHT22;1386;50.862;6.494;2023-07-13T01:53:39;17.10;99.90
2757;DHT22;1386;50.862;6.494;2023-07-13T01:56:08;17.10;99.90
2757;DHT22;1386;50.862;6.494;2023-07-13T01:58:34;17.10;99.90
2757;DHT22;1386;50.862;6.494;2023-07-13T02:01:01;17.10;99.90
2757;DHT22;1386;50.862;6.494;2023-07-13T02:03:28;17.00;99.90
2757;DHT22;1386;50.862;6.494;2023-07-13T02:05:55;16.90;99.90
2757;DHT22;1386;50.862;6.494;2023-07-13T02:08:22;17.00;99.90
2757;DHT22;1386;50.862;6.494;2023-07-13T02:10:48;17.00;99.90
2757;DHT22;1386;50.862;6.494;2023-07-13T02:13:16;16.90;99.90
2757;DHT22;1386;50.862;6.494;2023-07-13T02:15:43;16.90;99.90
2757;DHT22;1386;50.862;6.494;2023-07-13T02:18:10;16.80;99.90
2757;DHT22;1386;50.862;6.494;2023-07-13T02:20:42;16.80;99.90
2757;DHT22;1386;50.862;6.494;2023-07-13T02:23:10;16.70;99.90
2757;DHT22;1386;50.862;6.494;2023-07-13T02:25:36;16.70;99.90
2757;DHT22;1386;50.862;6.494;2023-07-13T02:28:03;16.70;99.90
2757;DHT22;1386;50.862;6.494;2023-07-13T02:30:31;16.70;99.90
2757;DHT22;1386;50.862;6.494;2023-07-13T02:33:01;16.70;99.90
2757;DHT22;1386;50.862;6.494;2023-07-13T02:35:28;16.70;99.90
2757;DHT22;1386;50.862;6.494;2023-07-13T02:37:55;16.70;99.90
2757;DHT22;1386;50.862;6.494;2023-07-13T02:40:22;16.70;99.90
2757;DHT22;1386;50.862;6.494;2023-07-13T02:42:49;16.70;99.90
2757;DHT22;1386;50.862;6.494;2023-07-13T02:45:16;16.70;99.90
2757;DHT22;1386;50.862;6.494;2023-07-13T02:47:44;16.70;99.90
2757;DHT22;1386;50.862;6.494;2023-07-13T02:50:11;16.60;99.90
2757;DHT22;1386;50.862;6.494;2023-07-13T02:52:38;16.60;99.90
2757;DHT22;1386;50.862;6.494;2023-07-13T02:55:05;16.60;99.90
2757;DHT22;1386;50.862;6.494;2023-07-13T02:57:32;16.60;99.90
2757;DHT22;1386;50.862;6.494;2023-07-13T02:59:59;16.60;99.90
2757;DHT22;1386;50.862;6.494;2023-07-13T03:02:26;16.60;99.90
2757;DHT22;1386;50.862;6.494;2023-07-13T03:04:55;16.50;99.90
2757;DHT22;1386;50.862;6.494;2023-07-13T03:07:22;16.50;99.90
2757;DHT22;1386;50.862;6.494;2023-07-13T03:09:49;16.50;99.90
2757;DHT22;1386;50.862;6.494;2023-07-13T03:12:19;16.50;99.90
2757;DHT22;1386;50.862;6.494;2023-07-13T03:14:46;16.50;99.90
2757;DHT22;1386;50.862;6.494;2023-07-13T03:17:13;16.50;99.90
2757;DHT22;1386;50.862;6.494;2023-07-13T03:19:42;16.50;99.90
2757;DHT22;1386;50.862;6.494;2023-07-13T03:22:10;16.60;99.90
2757;DHT22;1386;50.862;6.494;2023-07-13T03:24:37;16.50;99.90
2757;DHT22;1386;50.862;6.494;2023-07-13T03:27:05;16.60;99.90
2757;DHT22;1386;50.862;6.494;2023-07-13T03:29:32;16.60;99.90
2757;DHT22;1386;50.862;6.494;2023-07-13T03:31:58;16.60;99.90
2757;DHT22;1386;50.862;6.494;2023-07-13T03:34:25;16.60;99.90
2757;DHT22;1386;50.862;6.494;2023-07-13T03:36:54;16.60;99.90
2757;DHT22;1386;50.862;6.494;2023-07-13T03:39:22;16.60;99.90
2757;DHT22;1386;50.862;6.494;2023-07-13T03:41:50;16.60;99.90
2757;DHT22;1386;50.862;6.494;2023-07-13T03:44:17;16.60;99.90
2757;DHT22;1386;50.862;6.494;2023-07-13T03:46:44;16.60;99.90
2757;DHT22;1386;50.862;6.494;2023-07-13T03:49:11;16.60;99.90
2757;DHT22;1386;50.862;6.494;2023-07-13T03:51:38;16.60;99.90
2757;DHT22;1386;50.862;6.494;2023-07-13T03:54:05;16.60;99.90
2757;DHT22;1386;50.862;6.494;2023-07-13T03:56:34;16.60;99.90
2757;DHT22;1386;50.862;6.494;2023-07-13T03:59:01;16.50;99.90
2757;DHT22;1386;50.862;6.494;2023-07-13T04:01:28;16.50;99.90
2757;DHT22;1386;50.862;6.494;2023-07-13T04:03:55;16.50;99.90
2757;DHT22;1386;50.862;6.494;2023-07-13T04:06:28;16.50;99.90
2757;DHT22;1386;50.862;6.494;2023-07-13T04:08:58;16.50;99.90
2757;DHT22;1386;50.862;6.494;2023-07-13T04:11:27;16.50;99.90
2757;DHT22;1386;50.862;6.494;2023-07-13T04:13:55;16.50;99.90
2757;DHT22;1386;50.862;6.494;2023-07-13T04:16:23;16.50;99.90
2757;DHT22;1386;50.862;6.494;2023-07-13T04:18:50;16.50;99.90
2757;DHT22;1386;50.862;6.494;2023-07-13T04:21:20;16.50;99.90
2757;DHT22;1386;50.862;6.494;2023-07-13T04:23:47;16.50;99.90
2757;DHT22;1386;50.862;6.494;2023-07-13T04:26:14;16.50;99.90
2757;DHT22;1386;50.862;6.494;2023-07-13T04:28:41;16.50;99.90
2757;DHT22;1386;50.862;6.494;2023-07-13T04:31:09;16.50;99.90
2757;DHT22;1386;50.862;6.494;2023-07-13T04:33:36;16.50;99.90
2757;DHT22;1386;50.862;6.494;2023-07-13T04:36:03;16.60;99.90
2757;DHT22;1386;50.862;6.494;2023-07-13T04:38:31;16.50;99.90
2757;DHT22;1386;50.862;6.494;2023-07-13T04:41:00;16.60;99.90
2757;DHT22;1386;50.862;6.494;2023-07-13T04:43:28;16.60;99.90
2757;DHT22;1386;50.862;6.494;2023-07-13T04:45:55;16.60;99.90
2757;DHT22;1386;50.862;6.494;2023-07-13T04:48:23;16.60;99.90
2757;DHT22;1386;50.862;6.494;2023-07-13T04:50:55;16.50;99.90
2757;DHT22;1386;50.862;6.494;2023-07-13T04:53:22;16.60;99.90
2757;DHT22;1386;50.862;6.494;2023-07-13T04:55:49;16.60;99.90
2757;DHT22;1386;50.862;6.494;2023-07-13T04:58:16;16.70;99.90
2757;DHT22;1386;50.862;6.494;2023-07-13T05:00:43;16.70;99.90
2757;DHT22;1386;50.862;6.494;2023-07-13T05:03:10;16.70;99.90
2757;DHT22;1386;50.862;6.494;2023-07-13T05:05:38;16.70;99.90
2757;DHT22;1386;50.862;6.494;2023-07-13T05:08:05;16.80;99.90
2757;DHT22;1386;50.862;6.494;2023-07-13T05:10:33;16.80;99.90
2757;DHT22;1386;50.862;6.494;2023-07-13T05:13:00;16.80;99.90
2757;DHT22;1386;50.862;6.494;2023-07-13T05:15:27;16.80;99.90
2757;DHT22;1386;50.862;6.494;2023-07-13T05:17:54;16.80;99.90
2757;DHT22;1386;50.862;6.494;2023-07-13T05:20:21;16.80;99.90
2757;DHT22;1386;50.862;6.494;2023-07-13T05:22:49;16.90;99.90
2757;DHT22;1386;50.862;6.494;2023-07-13T05:28:40;17.00;99.90
2757;DHT22;1386;50.862;6.494;2023-07-13T05:31:08;17.10;99.90
2757;DHT22;1386;50.862;6.494;2023-07-13T05:33:35;17.10;99.90
2757;DHT22;1386;50.862;6.494;2023-07-13T05:36:02;17.10;99.90
2757;DHT22;1386;50.862;6.494;2023-07-13T05:38:33;17.20;99.90
2757;DHT22;1386;50.862;6.494;2023-07-13T05:41:05;17.20;99.90
2757;DHT22;1386;50.862;6.494;2023-07-13T05:43:33;17.20;99.90
2757;DHT22;1386;50.862;6.494;2023-07-13T05:45:59;17.30;99.90
2757;DHT22;1386;50.862;6.494;2023-07-13T05:48:26;17.30;99.90
2757;DHT22;1386;50.862;6.494;2023-07-13T05:50:53;17.30;99.90
2757;DHT22;1386;50.862;6.494;2023-07-13T05:53:21;17.30;99.90
2757;DHT22;1386;50.862;6.494;2023-07-13T05:55:49;17.30;99.90
2757;DHT22;1386;50.862;6.494;2023-07-13T05:58:19;17.30;99.90
2757;DHT22;1386;50.862;6.494;2023-07-13T06:00:46;17.30;99.90
2757;DHT22;1386;50.862;6.494;2023-07-13T06:03:13;17.40;99.90
2757;DHT22;1386;50.862;6.494;2023-07-13T06:05:41;17.40;99.90
2757;DHT22;1386;50.862;6.494;2023-07-13T06:08:08;17.50;99.90
2757;DHT22;1386;50.862;6.494;2023-07-13T06:10:35;17.40;99.90
2757;DHT22;1386;50.862;6.494;2023-07-13T06:13:04;17.40;99.90
2757;DHT22;1386;50.862;6.494;2023-07-13T06:15:30;17.40;99.90
2757;DHT22;1386;50.862;6.494;2023-07-13T06:17:57;17.50;99.90
2757;DHT22;1386;50.862;6.494;2023-07-13T06:20:24;17.50;99.90
2757;DHT22;1386;50.862;6.494;2023-07-13T06:22:51;17.50;99.90
2757;DHT22;1386;50.862;6.494;2023-07-13T06:25:18;17.60;99.90
2757;DHT22;1386;50.862;6.494;2023-07-13T06:27:45;17.70;99.90
2757;DHT22;1386;50.862;6.494;2023-07-13T06:30:13;17.80;99.90
2757;DHT22;1386;50.862;6.494;2023-07-13T06:32:40;17.80;99.90
2757;DHT22;1386;50.862;6.494;2023-07-13T06:35:07;17.80;99.90
2757;DHT22;1386;50.862;6.494;2023-07-13T06:37:38;17.90;99.90
2757;DHT22;1386;50.862;6.494;2023-07-13T06:40:06;18.00;99.90
2757;DHT22;1386;50.862;6.494;2023-07-13T06:42:33;18.00;99.90
2757;DHT22;1386;50.862;6.494;2023-07-13T06:44:59;18.10;99.90
2757;DHT22;1386;50.862;6.494;2023-07-13T06:47:28;18.20;99.90
2757;DHT22;1386;50.862;6.494;2023-07-13T06:49:54;18.30;99.90
2757;DHT22;1386;50.862;6.494;2023-07-13T06:52:21;18.50;99.90
2757;DHT22;1386;50.862;6.494;2023-07-13T06:54:48;18.60;99.90
2757;DHT22;1386;50.862;6.494;2023-07-13T06:57:15;18.80;99.90
2757;DHT22;1386;50.862;6.494;2023-07-13T06:59:42;18.80;99.90
2757;DHT22;1386;50.862;6.494;2023-07-13T07:02:09;18.80;99.90
2757;DHT22;1386;50.862;6.494;2023-07-13T07:04:38;18.80;99.90
2757;DHT22;1386;50.862;6.494;2023-07-13T07:07:05;18.80;99.90
2757;DHT22;1386;50.862;6.494;2023-07-13T07:09:32;18.80;99.90
2757;DHT22;1386;50.862;6.494;2023-07-13T07:11:59;18.70;99.90
2757;DHT22;1386;50.862;6.494;2023-07-13T07:14:25;18.80;99.90
2757;DHT22;1386;50.862;6.494;2023-07-13T07:16:52;18.80;99.90
2757;DHT22;1386;50.862;6.494;2023-07-13T07:19:19;18.80;99.90
2757;DHT22;1386;50.862;6.494;2023-07-13T07:21:47;18.90;99.90
2757;DHT22;1386;50.862;6.494;2023-07-13T07:24:14;19.00;99.90
2757;DHT22;1386;50.862;6.494;2023-07-13T07:26:41;19.10;99.90
2757;DHT22;1386;50.862;6.494;2023-07-13T07:29:08;19.10;99.90
2757;DHT22;1386;50.862;6.494;2023-07-13T07:31:35;19.00;99.90
2757;DHT22;1386;50.862;6.494;2023-07-13T07:34:03;19.10;99.90
2757;DHT22;1386;50.862;6.494;2023-07-13T07:36:29;19.10;99.90
2757;DHT22;1386;50.862;6.494;2023-07-13T07:38:58;19.20;99.90
2757;DHT22;1386;50.862;6.494;2023-07-13T07:41:24;19.20;99.90
2757;DHT22;1386;50.862;6.494;2023-07-13T07:43:51;19.30;99.90
2757;DHT22;1386;50.862;6.494;2023-07-13T07:46:18;19.40;99.90
2757;DHT22;1386;50.862;6.494;2023-07-13T07:48:45;19.50;99.90
2757;DHT22;1386;50.862;6.494;2023-07-13T07:51:12;19.40;99.90
2757;DHT22;1386;50.862;6.494;2023-07-13T07:53:39;19.50;99.90
2757;DHT22;1386;50.862;6.494;2023-07-13T07:56:07;19.60;99.90
2757;DHT22;1386;50.862;6.494;2023-07-13T07:58:35;19.70;99.90
2757;DHT22;1386;50.862;6.494;2023-07-13T08:01:03;19.70;99.90
2757;DHT22;1386;50.862;6.494;2023-07-13T08:03:31;19.80;99.90
2757;DHT22;1386;50.862;6.494;2023-07-13T08:05:58;19.90;99.90
2757;DHT22;1386;50.862;6.494;2023-07-13T08:08:25;20.00;99.90
2757;DHT22;1386;50.862;6.494;2023-07-13T08:10:52;20.10;99.90
2757;DHT22;1386;50.862;6.494;2023-07-13T08:13:20;20.10;99.90
2757;DHT22;1386;50.862;6.494;2023-07-13T08:15:47;20.30;99.90
2757;DHT22;1386;50.862;6.494;2023-07-13T08:18:15;20.20;99.90
2757;DHT22;1386;50.862;6.494;2023-07-13T08:20:42;20.30;99.90
2757;DHT22;1386;50.862;6.494;2023-07-13T08:23:11;20.40;99.90
2757;DHT22;1386;50.862;6.494;2023-07-13T08:25:38;20.50;99.90
2757;DHT22;1386;50.862;6.494;2023-07-13T08:28:05;20.50;99.90
2757;DHT22;1386;50.862;6.494;2023-07-13T08:30:34;20.40;99.90
2757;DHT22;1386;50.862;6.494;2023-07-13T08:33:01;20.50;99.90
2757;DHT22;1386;50.862;6.494;2023-07-13T08:35:28;20.50;99.90
2757;DHT22;1386;50.862;6.494;2023-07-13T08:37:55;20.50;99.90
2757;DHT22;1386;50.862;6.494;2023-07-13T08:40:25;20.60;99.90
2757;DHT22;1386;50.862;6.494;2023-07-13T08:42:55;20.60;99.90
2757;DHT22;1386;50.862;6.494;2023-07-13T08:45:28;20.60;99.90
2757;DHT22;1386;50.862;6.494;2023-07-13T08:48:01;20.50;99.90
2757;DHT22;1386;50.862;6.494;2023-07-13T08:50:33;20.50;99.90
2757;DHT22;1386;50.862;6.494;2023-07-13T08:53:03;20.40;99.90
2757;DHT22;1386;50.862;6.494;2023-07-13T08:55:34;20.60;99.90
2757;DHT22;1386;50.862;6.494;2023-07-13T08:58:09;20.60;99.90
2757;DHT22;1386;50.862;6.494;2023-07-13T09:00:43;20.70;99.90
2757;DHT22;1386;50.862;6.494;2023-07-13T09:03:20;20.80;99.90
2757;DHT22;1386;50.862;6.494;2023-07-13T09:05:52;20.90;99.90
2757;DHT22;1386;50.862;6.494;2023-07-13T09:08:35;20.90;99.90
2757;DHT22;1386;50.862;6.494;2023-07-13T09:11:13;20.80;99.90
2757;DHT22;1386;50.862;6.494;2023-07-13T09:13:49;20.70;99.90
2757;DHT22;1386;50.862;6.494;2023-07-13T09:16:18;20.90;99.90
2757;DHT22;1386;50.862;6.494;2023-07-13T09:18:49;21.00;99.90
2757;DHT22;1386;50.862;6.494;2023-07-13T09:21:18;21.10;99.90
2757;DHT22;1386;50.862;6.494;2023-07-13T09:23:47;21.40;99.90
2757;DHT22;1386;50.862;6.494;2023-07-13T09:26:18;21.40;99.90
2757;DHT22;1386;50.862;6.494;2023-07-13T09:28:48;21.50;99.90
2757;DHT22;1386;50.862;6.494;2023-07-13T09:31:17;21.50;99.90
2757;DHT22;1386;50.862;6.494;2023-07-13T09:33:48;21.50;99.90
2757;DHT22;1386;50.862;6.494;2023-07-13T09:36:22;21.50;99.90
2757;DHT22;1386;50.862;6.494;2023-07-13T09:38:59;21.50;99.90
2757;DHT22;1386;50.862;6.494;2023-07-13T09:41:39;21.70;99.90
2757;DHT22;1386;50.862;6.494;2023-07-13T09:44:09;21.80;99.90
2757;DHT22;1386;50.862;6.494;2023-07-13T09:46:37;22.00;99.90
2757;DHT22;1386;50.862;6.494;2023-07-13T09:49:08;22.10;99.90
2757;DHT22;1386;50.862;6.494;2023-07-13T09:51:36;22.10;99.90
2757;DHT22;1386;50.862;6.494;2023-07-13T09:54:03;22.00;99.90
2757;DHT22;1386;50.862;6.494;2023-07-13T09:56:30;22.00;99.90
2757;DHT22;1386;50.862;6.494;2023-07-13T09:58:58;22.10;99.90
2757;DHT22;1386;50.862;6.494;2023-07-13T10:01:33;22.40;99.90
2757;DHT22;1386;50.862;6.494;2023-07-13T10:04:01;22.30;99.90
2757;DHT22;1386;50.862;6.494;2023-07-13T10:06:30;22.30;99.90
2757;DHT22;1386;50.862;6.494;2023-07-13T10:08:57;22.50;99.90
2757;DHT22;1386;50.862;6.494;2023-07-13T10:11:27;22.50;99.90
2757;DHT22;1386;50.862;6.494;2023-07-13T10:13:57;22.50;99.90
2757;DHT22;1386;50.862;6.494;2023-07-13T10:16:27;22.60;99.90
2757;DHT22;1386;50.862;6.494;2023-07-13T10:18:59;22.80;99.90
2757;DHT22;1386;50.862;6.494;2023-07-13T10:21:30;22.90;99.90
2757;DHT22;1386;50.862;6.494;2023-07-13T10:24:04;22.90;99.90
2757;DHT22;1386;50.862;6.494;2023-07-13T10:26:33;22.80;99.90
2757;DHT22;1386;50.862;6.494;2023-07-13T10:29:04;22.70;99.90
2757;DHT22;1386;50.862;6.494;2023-07-13T10:31:34;22.70;99.90
2757;DHT22;1386;50.862;6.494;2023-07-13T10:34:03;22.80;99.90
2757;DHT22;1386;50.862;6.494;2023-07-13T14:36:23;24.80;85.40
2757;DHT22;1386;50.862;6.494;2023-07-13T14:38:51;24.70;86.00
2757;DHT22;1386;50.862;6.494;2023-07-13T14:41:19;24.60;86.90
2757;DHT22;1386;50.862;6.494;2023-07-13T14:43:46;24.60;85.30
2757;DHT22;1386;50.862;6.494;2023-07-13T14:46:22;24.70;85.00
2757;DHT22;1386;50.862;6.494;2023-07-13T14:48:51;24.70;83.60
2757;DHT22;1386;50.862;6.494;2023-07-13T14:51:19;24.70;84.10
2757;DHT22;1386;50.862;6.494;2023-07-13T14:53:46;24.70;84.20
2757;DHT22;1386;50.862;6.494;2023-07-13T14:56:12;24.60;84.30
2757;DHT22;1386;50.862;6.494;2023-07-13T14:58:40;24.70;84.70
2757;DHT22;1386;50.862;6.494;2023-07-13T15:01:11;24.60;85.20
2757;DHT22;1386;50.862;6.494;2023-07-13T15:03:43;24.60;85.50
2757;DHT22;1386;50.862;6.494;2023-07-13T15:06:11;24.40;85.00
2757;DHT22;1386;50.862;6.494;2023-07-13T15:08:40;24.30;85.30
2757;DHT22;1386;50.862;6.494;2023-07-13T15:11:07;24.20;86.10
2757;DHT22;1386;50.862;6.494;2023-07-13T15:13:34;24.10;86.10
2757;DHT22;1386;50.862;6.494;2023-07-13T15:16:01;24.10;86.20
2757;DHT22;1386;50.862;6.494;2023-07-13T15:18:28;24.10;86.40
2757;DHT22;1386;50.862;6.494;2023-07-13T15:20:55;24.10;86.20
2757;DHT22;1386;50.862;6.494;2023-07-13T15:23:26;24.00;86.90
2757;DHT22;1386;50.862;6.494;2023-07-13T15:25:54;24.00;86.90
2757;DHT22;1386;50.862;6.494;2023-07-13T15:28:21;23.90;86.30
2757;DHT22;1386;50.862;6.494;2023-07-13T15:30:49;24.00;87.70
2757;DHT22;1386;50.862;6.494;2023-07-13T15:33:19;23.90;88.20
2757;DHT22;1386;50.862;6.494;2023-07-13T15:35:48;23.80;90.60
2757;DHT22;1386;50.862;6.494;2023-07-13T15:38:17;23.60;91.80
2757;DHT22;1386;50.862;6.494;2023-07-13T15:40:45;23.50;92.10
2757;DHT22;1386;50.862;6.494;2023-07-13T15:43:15;23.30;92.10
2757;DHT22;1386;50.862;6.494;2023-07-13T15:45:42;23.10;92.30
2757;DHT22;1386;50.862;6.494;2023-07-13T15:48:16;23.00;92.80
2757;DHT22;1386;50.862;6.494;2023-07-13T15:50:45;22.90;93.10
2757;DHT22;1386;50.862;6.494;2023-07-13T15:53:13;22.90;93.20
2757;DHT22;1386;50.862;6.494;2023-07-13T15:55:41;22.70;93.50
2757;DHT22;1386;50.862;6.494;2023-07-13T15:58:12;22.70;93.80
2757;DHT22;1386;50.862;6.494;2023-07-13T16:00:42;22.60;94.10
2757;DHT22;1386;50.862;6.494;2023-07-13T16:03:10;22.70;94.90
2757;DHT22;1386;50.862;6.494;2023-07-13T16:07:24;22.70;94.90
2757;DHT22;1386;50.862;6.494;2023-07-13T16:09:51;22.80;94.70
2757;DHT22;1386;50.862;6.494;2023-07-13T16:13:02;22.80;94.90
2757;DHT22;1386;50.862;6.494;2023-07-13T16:15:35;22.80;95.10
2757;DHT22;1386;50.862;6.494;2023-07-13T16:27:49;22.90;95.30
2757;DHT22;1386;50.862;6.494;2023-07-13T16:29:24;22.90;95.20
2757;DHT22;1386;50.862;6.494;2023-07-13T16:31:59;22.90;95.10
2757;DHT22;1386;50.862;6.494;2023-07-13T16:34:27;22.80;95.00
2757;DHT22;1386;50.862;6.494;2023-07-13T16:36:54;22.90;95.10
2757;DHT22;1386;50.862;6.494;2023-07-13T16:39:22;22.90;94.90
2757;DHT22;1386;50.862;6.494;2023-07-13T16:41:52;23.00;95.20
2757;DHT22;1386;50.862;6.494;2023-07-13T16:44:20;23.00;95.00
2757;DHT22;1386;50.862;6.494;2023-07-13T16:46:50;23.00;95.00
2757;DHT22;1386;50.862;6.494;2023-07-13T16:49:26;23.00;94.70
2757;DHT22;1386;50.862;6.494;2023-07-13T16:51:55;23.00;94.30
2757;DHT22;1386;50.862;6.494;2023-07-13T16:54:26;23.10;94.20
2757;DHT22;1386;50.862;6.494;2023-07-13T16:56:58;23.00;94.30
2757;DHT22;1386;50.862;6.494;2023-07-13T16:59:32;23.00;94.40
2757;DHT22;1386;50.862;6.494;2023-07-13T17:02:01;23.00;94.50
2757;DHT22;1386;50.862;6.494;2023-07-13T17:04:39;23.10;94.60
2757;DHT22;1386;50.862;6.494;2023-07-13T17:07:15;23.00;94.50
2757;DHT22;1386;50.862;6.494;2023-07-13T17:09:44;23.00;94.70
2757;DHT22;1386;50.862;6.494;2023-07-13T17:12:12;23.00;94.70
2757;DHT22;1386;50.862;6.494;2023-07-13T17:14:40;23.00;94.50
2757;DHT22;1386;50.862;6.494;2023-07-13T17:17:15;22.90;94.20
2757;DHT22;1386;50.862;6.494;2023-07-13T17:19:45;22.90;94.10
2757;DHT22;1386;50.862;6.494;2023-07-13T17:22:12;22.90;94.10
2757;DHT22;1386;50.862;6.494;2023-07-13T17:25:22;22.90;94.00
2757;DHT22;1386;50.862;6.494;2023-07-13T17:27:50;23.00;94.00
2757;DHT22;1386;50.862;6.494;2023-07-13T17:30:26;23.00;94.00
2757;DHT22;1386;50.862;6.494;2023-07-13T17:33:46;22.90;94.00
2757;DHT22;1386;50.862;6.494;2023-07-13T17:36:21;23.00;94.10
2757;DHT22;1386;50.862;6.494;2023-07-13T17:39:02;23.00;94.00
2757;DHT22;1386;50.862;6.494;2023-07-13T17:41:47;23.00;93.90
2757;DHT22;1386;50.862;6.494;2023-07-13T17:47:57;23.10;93.70
2757;DHT22;1386;50.862;6.494;2023-07-13T17:50:58;23.00;93.60
2757;DHT22;1386;50.862;6.494;2023-07-13T17:53:54;23.00;93.40
2757;DHT22;1386;50.862;6.494;2023-07-13T17:57:14;22.90;93.60
2757;DHT22;1386;50.862;6.494;2023-07-13T17:59:47;22.90;93.50
2757;DHT22;1386;50.862;6.494;2023-07-13T18:02:20;22.90;93.90
2757;DHT22;1386;50.862;6.494;2023-07-13T18:05:01;22.80;93.40
2757;DHT22;1386;50.862;6.494;2023-07-13T18:07:34;22.80;93.70
2757;DHT22;1386;50.862;6.494;2023-07-13T18:10:26;22.80;94.20
2757;DHT22;1386;50.862;6.494;2023-07-13T18:13:10;22.80;95.20
2757;DHT22;1386;50.862;6.494;2023-07-13T18:15:53;22.70;95.60
2757;DHT22;1386;50.862;6.494;2023-07-13T18:18:34;22.70;95.70
2757;DHT22;1386;50.862;6.494;2023-07-13T18:21:04;22.60;96.90
2757;DHT22;1386;50.862;6.494;2023-07-13T18:23:31;22.60;96.90
2757;DHT22;1386;50.862;6.494;2023-07-13T18:26:00;22.70;97.40
2757;DHT22;1386;50.862;6.494;2023-07-13T18:28:27;22.70;98.00
2757;DHT22;1386;50.862;6.494;2023-07-13T18:30:56;22.70;98.60
2757;DHT22;1386;50.862;6.494;2023-07-13T18:33:26;22.70;99.10
2757;DHT22;1386;50.862;6.494;2023-07-13T18:35:54;22.70;99.30
2757;DHT22;1386;50.862;6.494;2023-07-13T18:38:23;22.60;99.50
2757;DHT22;1386;50.862;6.494;2023-07-13T18:40:51;22.70;99.90
2757;DHT22;1386;50.862;6.494;2023-07-13T18:43:20;22.70;99.90
2757;DHT22;1386;50.862;6.494;2023-07-13T18:45:58;22.60;99.90
2757;DHT22;1386;50.862;6.494;2023-07-13T18:48:28;22.60;99.90
2757;DHT22;1386;50.862;6.494;2023-07-13T18:51:03;22.60;99.90
2757;DHT22;1386;50.862;6.494;2023-07-13T18:53:35;22.50;99.90
2757;DHT22;1386;50.862;6.494;2023-07-13T18:56:02;22.50;99.90
2757;DHT22;1386;50.862;6.494;2023-07-13T18:58:31;22.40;99.90
2757;DHT22;1386;50.862;6.494;2023-07-13T19:01:00;22.40;99.90
2757;DHT22;1386;50.862;6.494;2023-07-13T19:03:32;22.30;99.90
2757;DHT22;1386;50.862;6.494;2023-07-13T19:06:01;22.30;99.90
2757;DHT22;1386;50.862;6.494;2023-07-13T19:08:29;22.30;99.90
2757;DHT22;1386;50.862;6.494;2023-07-13T19:10:56;22.20;99.90
2757;DHT22;1386;50.862;6.494;2023-07-13T19:13:25;22.20;99.90
2757;DHT22;1386;50.862;6.494;2023-07-13T19:15:54;22.20;99.90
2757;DHT22;1386;50.862;6.494;2023-07-13T19:18:23;22.10;99.90
2757;DHT22;1386;50.862;6.494;2023-07-13T19:20:52;22.20;99.90
2757;DHT22;1386;50.862;6.494;2023-07-13T19:23:25;22.20;99.90
2757;DHT22;1386;50.862;6.494;2023-07-13T19:25:53;22.10;99.90
2757;DHT22;1386;50.862;6.494;2023-07-13T19:28:27;22.10;99.90
2757;DHT22;1386;50.862;6.494;2023-07-13T19:30:57;22.10;99.90
2757;DHT22;1386;50.862;6.494;2023-07-13T19:33:24;22.10;99.90
2757;DHT22;1386;50.862;6.494;2023-07-13T19:35:51;22.00;99.90
2757;DHT22;1386;50.862;6.494;2023-07-13T19:38:24;22.00;99.90
2757;DHT22;1386;50.862;6.494;2023-07-13T19:40:52;22.00;99.90
2757;DHT22;1386;50.862;6.494;2023-07-13T19:43:19;21.90;99.90
2757;DHT22;1386;50.862;6.494;2023-07-13T19:45:46;21.90;99.90
2757;DHT22;1386;50.862;6.494;2023-07-13T19:48:14;21.80;99.90
2757;DHT22;1386;50.862;6.494;2023-07-13T19:50:42;21.80;99.90
2757;DHT22;1386;50.862;6.494;2023-07-13T19:53:16;21.70;99.90
2757;DHT22;1386;50.862;6.494;2023-07-13T19:55:45;21.70;99.90
2757;DHT22;1386;50.862;6.494;2023-07-13T19:58:12;21.60;99.90
2757;DHT22;1386;50.862;6.494;2023-07-13T20:00:40;21.50;99.90
2757;DHT22;1386;50.862;6.494;2023-07-13T20:03:07;21.40;99.90
2757;DHT22;1386;50.862;6.494;2023-07-13T20:05:35;21.20;99.90
2757;DHT22;1386;50.862;6.494;2023-07-13T20:08:11;21.10;99.90
2757;DHT22;1386;50.862;6.494;2023-07-13T20:10:38;21.00;99.90
2757;DHT22;1386;50.862;6.494;2023-07-13T20:13:12;20.90;99.90
2757;DHT22;1386;50.862;6.494;2023-07-13T20:15:40;20.80;99.90
2757;DHT22;1386;50.862;6.494;2023-07-13T20:18:13;20.70;99.90
2757;DHT22;1386;50.862;6.494;2023-07-13T20:20:42;20.70;99.90
2757;DHT22;1386;50.862;6.494;2023-07-13T20:23:16;20.70;99.90
2757;DHT22;1386;50.862;6.494;2023-07-13T20:25:45;20.60;99.90
2757;DHT22;1386;50.862;6.494;2023-07-13T20:28:14;20.50;99.90
2757;DHT22;1386;50.862;6.494;2023-07-13T20:30:42;20.40;99.90
2757;DHT22;1386;50.862;6.494;2023-07-13T20:33:13;20.40;99.90
2757;DHT22;1386;50.862;6.494;2023-07-13T20:35:42;20.30;99.90
2757;DHT22;1386;50.862;6.494;2023-07-13T20:38:12;20.20;99.90
2757;DHT22;1386;50.862;6.494;2023-07-13T20:40:40;20.10;99.90
2757;DHT22;1386;50.862;6.494;2023-07-13T20:46:39;20.00;99.90
2757;DHT22;1386;50.862;6.494;2023-07-13T20:49:22;19.90;99.90
2757;DHT22;1386;50.862;6.494;2023-07-13T20:51:54;19.80;99.90